7XS2 weather

Texas Childrens Downtown Heliport
Houston, Texas, United States

Public forecast

Using degrees Fahrenheit for public forecast. Weather courtesy of forecast.io.

METAR (pilot weather report)

Closest report is William P Hobby Airport, 7.5 nm (13.8 km) ESE. Retrieved 2019/07/18 01:53 UTC (23 minutes ago):

KHOU 180153Z 16010KT 10SM FEW025 FEW250 29/24 A2999 RMK AO2 SLP160 T02940239

TAF (pilot weather forecast)

Forecast is more than 12 hours old.

Closest forecast is William P Hobby Airport, 7.5 nm (13.8 km) ESE. Retrieved 2019/07/17 00:24 UTC (1 day ago):

TAF KHOU 172322Z 1800/1824 16013KT P6SM SCT035 SCT250 FM180200 16007KT P6SM SCT025 FM181500 17008KT P6SM SCT030 FM181800 16012G22KT P6SM SCT040